This is the latest recevied weather packets stored in our database for station/object LIPZ. If no packets are shown the sender has not sent any weather packets the latest 10 day(s).
| Time | Temp. | Humidity | Pressure | Rain* | Wind** | Luminosity | Snow |
|---|---|---|---|---|---|---|---|
| 1777597204 | 12.78° C | 47% | 1027 hPa | - | - | - | - |
| 1777596304 | 12.78° C | 47% | 1027 hPa | - | - | - | - |
| 1777595405 | 12.78° C | 47% | 1027 hPa | - | - | - | - |
| 1777594503 | 12.78° C | 54% | 1027 hPa | - | - | - | - |
| 1777592703 | 10° C | 66% | 1027 hPa | - | - | - | - |
| 1777591804 | 11.11° C | 53% | 1026 hPa | - | - | - | - |
| 1777590904 | 11.11° C | 53% | 1026 hPa | - | - | - | - |
| 1777590004 | 11.11° C | 53% | 1026 hPa | - | - | - | - |
| 1777589104 | 12.22° C | 54% | 1026 hPa | - | - | - | - |
| 1777586406 | 12.22° C | 50% | 1026 hPa | - | - | - | - |
| 1777585504 | 12.22° C | 62% | 1025 hPa | - | - | - | - |
| 1777584604 | 12.22° C | 62% | 1025 hPa | - | - | - | - |
| 1777582805 | 12.78° C | 50% | 1025 hPa | - | - | - | - |
| 1777581904 | 13.89° C | 47% | 1025 hPa | - | - | - | - |
| 1777580103 | 13.89° C | 54% | 1024 hPa | - | - | - | - |
| 1777577405 | 13.89° C | 47% | 1024 hPa | - | - | - | - |
| 1777571105 | 17.22° C | 33% | 1023 hPa | - | - | - | - |
| 1777570203 | 17.22° C | 31% | 1023 hPa | - | - | - | - |
| 1777569304 | 17.22° C | 31% | 1023 hPa | - | - | - | - |
| 1777568405 | 17.22° C | 31% | 1023 hPa | - | - | - | - |
| 1777566604 | 17.22° C | 29% | 1023 hPa | - | - | - | - |
| 1777565704 | 17.22° C | 31% | 1023 hPa | - | - | - | - |
| 1777564804 | 17.22° C | 31% | 1023 hPa | - | - | - | - |
| 1777563904 | 17.22° C | 31% | 1023 hPa | - | - | - | - |
| 1777563004 | 17.22° C | 31% | 1023 hPa | - | - | - | - |
* Rain since midnight (hover to see other rain measurements)
** Current wind speed in m/s (hover to see current wind gust speed)